Time;durP1;ratioP1;P1;durP2;ratioP2;P2;SDS_P1;SDS_P2;PMS_P1;PMS_P2;Temp;Humidity;BMP_temperature;BMP_pressure;BME280_temperature;BME280_humidity;BME280_pressure;Samples;Min_cycle;Max_cycle;Signal;HPM_P1;HPM_P2
2023/05/17 00:00:33;;;;;;;13.38;4.10;;;9.30;99.90;;;;;;5050155;28;20033;-63
2023/05/17 00:02:59;;;;;;;10.73;3.60;;;9.30;99.90;;;;;;5049739;28;20402;-61
2023/05/17 00:05:24;;;;;;;15.40;4.05;;;9.30;99.90;;;;;;5050031;28;20040;-62
2023/05/17 00:07:50;;;;;;;16.50;3.85;;;9.40;99.90;;;;;;5051258;28;20056;-63
2023/05/17 00:10:16;;;;;;;14.13;4.03;;;9.40;99.90;;;;;;5049642;28;20041;-63
2023/05/17 00:12:42;;;;;;;19.50;4.40;;;9.40;99.90;;;;;;5049835;28;20037;-65
2023/05/17 00:15:08;;;;;;;17.08;5.03;;;9.40;99.90;;;;;;5049401;28;20451;-62
2023/05/17 00:17:36;;;;;;;14.57;3.55;;;9.40;99.90;;;;;;5049570;28;20040;-62
2023/05/17 00:20:01;;;;;;;15.20;3.97;;;9.40;99.90;;;;;;5049215;28;20527;-62
2023/05/17 00:22:27;;;;;;;14.55;3.92;;;9.40;99.90;;;;;;5049604;28;20122;-61
2023/05/17 00:24:53;;;;;;;16.13;4.53;;;9.40;99.90;;;;;;5049525;28;20035;-62
2023/05/17 00:27:18;;;;;;;12.18;3.42;;;9.30;99.90;;;;;;5032762;28;20060;-63
2023/05/17 00:29:44;;;;;;;15.25;2.95;;;9.40;99.90;;;;;;5050742;28;20484;-62
2023/05/17 00:32:09;;;;;;;16.00;3.88;;;9.30;99.90;;;;;;5050778;28;20087;-63
2023/05/17 00:34:35;;;;;;;12.48;3.05;;;9.30;99.90;;;;;;5051094;28;20550;-65
2023/05/17 00:37:01;;;;;;;9.38;3.38;;;9.20;99.90;;;;;;5049308;28;20498;-63
2023/05/17 00:39:26;;;;;;;18.98;4.35;;;9.20;99.90;;;;;;5049234;28;20107;-61
2023/05/17 00:41:52;;;;;;;17.00;3.80;;;9.20;99.90;;;;;;5049643;28;20546;-63
2023/05/17 00:44:18;;;;;;;12.45;2.88;;;9.10;99.90;;;;;;5048906;28;20041;-61
2023/05/17 00:46:45;;;;;;;16.02;4.10;;;9.10;99.90;;;;;;5049182;28;20087;-62
2023/05/17 00:49:11;;;;;;;16.52;3.47;;;9.10;99.90;;;;;;5048958;28;20143;-60
2023/05/17 00:51:36;;;;;;;14.52;3.50;;;9.00;99.90;;;;;;5050613;28;20072;-63
2023/05/17 00:54:03;;;;;;;14.63;3.42;;;9.00;99.90;;;;;;5049246;28;20044;-61
2023/05/17 00:56:30;;;;;;;12.25;2.92;;;8.90;99.90;;;;;;5050164;28;20048;-63
2023/05/17 00:58:56;;;;;;;12.75;3.88;;;8.90;99.90;;;;;;5048304;28;20090;-62
2023/05/17 01:01:22;;;;;;;15.18;3.58;;;8.90;99.90;;;;;;5031673;28;20041;-60
2023/05/17 01:03:48;;;;;;;15.60;3.20;;;8.80;99.90;;;;;;5049096;28;20120;-61
2023/05/17 01:06:14;;;;;;;14.43;3.25;;;8.80;99.90;;;;;;5050465;28;20056;-62
2023/05/17 01:08:39;;;;;;;15.68;2.85;;;8.80;99.90;;;;;;5049265;28;20088;-61
2023/05/17 01:11:14;;;;;;;12.43;3.05;;;8.80;99.90;;;;;;5032654;28;20048;-62
2023/05/17 01:14:19;;;;;;;11.25;2.70;;;8.70;99.90;;;;;;5050040;28;20191;-63
2023/05/17 01:17:00;;;;;;;13.68;3.22;;;8.70;99.90;;;;;;5050200;28;20048;-62
2023/05/17 01:19:38;;;;;;;12.77;3.10;;;8.70;99.90;;;;;;5048689;28;20061;-61
2023/05/17 01:22:14;;;;;;;14.32;3.58;;;8.50;99.90;;;;;;5049024;28;20056;-62
2023/05/17 01:25:11;;;;;;;17.75;4.00;;;8.50;99.90;;;;;;5048743;28;20041;-60
2023/05/17 01:27:40;;;;;;;17.67;2.72;;;8.40;99.90;;;;;;5048662;28;20123;-63
2023/05/17 01:30:08;;;;;;;12.23;3.10;;;8.40;99.90;;;;;;5050052;28;20051;-62
2023/05/17 01:32:34;;;;;;;11.85;2.65;;;8.40;99.90;;;;;;5032238;28;20039;-60
2023/05/17 01:35:02;;;;;;;15.10;3.17;;;8.30;99.90;;;;;;5050151;28;20032;-61
2023/05/17 01:37:28;;;;;;;11.43;2.42;;;8.30;99.90;;;;;;5048421;28;20041;-62
2023/05/17 01:39:53;;;;;;;13.15;2.75;;;8.20;99.90;;;;;;5050091;28;20040;-62
2023/05/17 01:42:35;;;;;;;11.95;2.50;;;8.20;99.90;;;;;;5049911;28;20049;-62
2023/05/17 01:45:19;;;;;;;11.68;3.00;;;8.20;99.90;;;;;;5050327;28;20029;-61
2023/05/17 01:47:58;;;;;;;11.45;3.25;;;8.20;99.90;;;;;;5048795;28;20151;-61
2023/05/17 01:50:28;;;;;;;12.35;3.22;;;8.10;99.90;;;;;;5048630;28;20412;-60
2023/05/17 01:53:00;;;;;;;15.52;3.40;;;8.10;99.90;;;;;;5049896;28;20098;-63
2023/05/17 01:55:37;;;;;;;13.23;3.22;;;8.10;99.90;;;;;;5049836;28;20045;-62
2023/05/17 01:58:06;;;;;;;17.52;3.00;;;8.00;99.90;;;;;;5048591;28;20052;-62
2023/05/17 02:00:32;;;;;;;12.90;3.22;;;8.00;99.90;;;;;;5048462;28;20051;-60
2023/05/17 02:02:58;;;;;;;12.30;2.72;;;7.90;99.90;;;;;;5048567;28;20045;-62
2023/05/17 02:05:24;;;;;;;14.52;3.83;;;7.90;99.90;;;;;;5049643;28;20519;-62
2023/05/17 02:07:49;;;;;;;12.80;2.60;;;7.90;99.90;;;;;;5048833;28;20052;-61
2023/05/17 02:10:15;;;;;;;10.57;2.70;;;7.90;99.90;;;;;;5050839;28;20044;-62
2023/05/17 02:12:40;;;;;;;22.17;3.67;;;7.80;99.90;;;;;;5053102;28;20040;-60
2023/05/17 02:15:09;;;;;;;13.23;2.75;;;7.80;99.90;;;;;;5053513;28;20507;-60
2023/05/17 02:17:35;;;;;;;16.85;2.88;;;7.80;99.90;;;;;;5052976;28;20132;-59
2023/05/17 02:20:01;;;;;;;14.27;3.10;;;7.70;99.90;;;;;;5051752;28;20133;-63
2023/05/17 02:22:26;;;;;;;19.98;3.33;;;7.70;99.90;;;;;;5053188;28;20033;-60
2023/05/17 02:24:52;;;;;;;15.25;2.75;;;7.70;99.90;;;;;;5053334;28;20036;-63
2023/05/17 02:27:18;;;;;;;15.43;2.97;;;7.70;99.90;;;;;;5053267;28;20099;-61
2023/05/17 02:29:43;;;;;;;11.18;2.42;;;7.70;99.90;;;;;;5052929;28;20037;-61
2023/05/17 02:32:09;;;;;;;14.57;2.80;;;7.70;99.90;;;;;;5051741;28;20049;-60
2023/05/17 02:34:35;;;;;;;13.27;3.00;;;7.70;99.90;;;;;;5051553;28;20047;-62
2023/05/17 02:37:01;;;;;;;17.40;3.00;;;7.60;99.90;;;;;;5051474;28;20403;-60
2023/05/17 02:39:26;;;;;;;22.98;3.72;;;7.60;99.90;;;;;;5053059;28;20094;-61
2023/05/17 02:41:52;;;;;;;18.35;2.65;;;7.60;99.90;;;;;;5052865;28;20079;-61
2023/05/17 02:44:17;;;;;;;17.23;3.10;;;7.50;99.90;;;;;;5053013;28;20517;-63
2023/05/17 02:46:43;;;;;;;15.35;3.63;;;7.50;99.90;;;;;;5052582;28;20040;-62
2023/05/17 02:49:08;;;;;;;15.13;2.90;;;7.50;99.90;;;;;;5051638;28;20056;-63
2023/05/17 02:51:34;;;;;;;18.30;2.67;;;7.50;99.90;;;;;;5052426;28;20090;-62
2023/05/17 02:54:00;;;;;;;14.60;2.55;;;7.60;99.90;;;;;;5052698;28;20087;-62
2023/05/17 02:56:25;;;;;;;17.58;3.78;;;7.60;99.90;;;;;;5052817;28;20446;-64
2023/05/17 02:58:51;;;;;;;13.35;2.88;;;7.60;99.90;;;;;;5050772;28;20037;-61
2023/05/17 03:01:17;;;;;;;19.08;3.20;;;7.60;99.90;;;;;;5050719;28;20040;-61
2023/05/17 03:03:42;;;;;;;18.83;2.83;;;7.50;99.90;;;;;;5051697;28;20033;-60
2023/05/17 03:06:08;;;;;;;17.63;4.15;;;7.50;99.90;;;;;;5050148;28;20480;-61
2023/05/17 03:08:33;;;;;;;18.73;3.28;;;7.50;99.90;;;;;;5052347;28;20044;-63
2023/05/17 03:10:59;;;;;;;20.85;2.78;;;7.50;99.90;;;;;;5050679;28;20033;-61
2023/05/17 03:13:25;;;;;;;19.70;3.10;;;7.50;99.90;;;;;;5051171;28;20127;-62
2023/05/17 03:15:50;;;;;;;13.85;2.85;;;7.50;99.90;;;;;;5051939;28;20111;-60
2023/05/17 03:18:16;;;;;;;17.92;2.58;;;7.50;99.90;;;;;;5052213;28;20133;-62
2023/05/17 03:20:42;;;;;;;16.45;2.58;;;7.50;99.90;;;;;;5050651;28;20048;-62
2023/05/17 03:23:07;;;;;;;13.85;3.35;;;7.40;99.90;;;;;;5051260;28;20041;-62
2023/05/17 03:25:33;;;;;;;22.35;3.10;;;7.40;99.90;;;;;;5050827;28;20036;-61
2023/05/17 03:27:59;;;;;;;15.02;3.00;;;7.40;99.90;;;;;;5050862;28;20132;-61
2023/05/17 03:30:24;;;;;;;18.15;3.05;;;7.30;99.90;;;;;;5052251;28;20107;-62
2023/05/17 03:32:51;;;;;;;14.18;2.58;;;7.40;99.90;;;;;;5051834;28;20040;-62
2023/05/17 03:35:16;;;;;;;15.93;2.42;;;7.30;99.90;;;;;;5033817;28;20037;-61
2023/05/17 03:37:42;;;;;;;14.73;2.97;;;7.30;99.90;;;;;;5051726;28;20045;-62
2023/05/17 03:40:08;;;;;;;13.75;2.50;;;7.30;99.90;;;;;;5051583;28;20041;-60
2023/05/17 03:42:34;;;;;;;14.63;2.53;;;7.30;99.90;;;;;;5050422;28;20041;-64
2023/05/17 03:45:00;;;;;;;8.52;2.42;;;7.30;99.90;;;;;;5051582;28;20348;-61
2023/05/17 03:47:25;;;;;;;14.27;2.50;;;7.30;99.90;;;;;;5050560;28;20488;-62
2023/05/17 03:49:51;;;;;;;11.38;1.92;;;7.20;99.90;;;;;;5050055;28;20056;-62
2023/05/17 03:52:16;;;;;;;12.15;2.03;;;7.20;99.90;;;;;;5051509;28;20033;-60
2023/05/17 03:54:42;;;;;;;14.15;2.47;;;7.20;99.90;;;;;;5050207;28;20048;-60
2023/05/17 03:57:08;;;;;;;13.20;2.63;;;7.10;99.90;;;;;;5050947;28;20127;-63
2023/05/17 03:59:33;;;;;;;13.98;2.28;;;7.10;99.90;;;;;;5050047;28;20399;-64
2023/05/17 04:01:59;;;;;;;15.90;2.78;;;7.10;99.90;;;;;;5051234;28;20029;-62
2023/05/17 04:04:25;;;;;;;13.02;2.78;;;7.00;99.90;;;;;;5049837;28;20040;-64
2023/05/17 04:06:51;;;;;;;17.85;3.20;;;7.00;99.90;;;;;;5049824;28;20064;-63
2023/05/17 04:09:16;;;;;;;14.70;3.10;;;7.00;99.90;;;;;;5049944;28;20127;-62
2023/05/17 04:11:42;;;;;;;14.13;3.35;;;7.00;99.90;;;;;;5050167;28;20458;-63
2023/05/17 04:14:08;;;;;;;15.20;3.42;;;7.00;99.90;;;;;;5049800;28;20041;-63
2023/05/17 04:16:34;;;;;;;13.68;2.70;;;7.10;99.90;;;;;;5049836;28;20041;-62
2023/05/17 04:18:59;;;;;;;16.83;2.78;;;7.20;99.90;;;;;;5050737;28;20045;-60
2023/05/17 04:21:26;;;;;;;15.13;3.42;;;7.30;99.90;;;;;;5049522;28;20048;-61
2023/05/17 04:23:51;;;;;;;16.58;3.00;;;7.40;99.90;;;;;;5050931;28;20440;-62
2023/05/17 04:26:17;;;;;;;16.30;3.15;;;7.40;99.90;;;;;;5049276;28;20047;-63
2023/05/17 04:28:43;;;;;;;11.85;2.55;;;7.50;99.90;;;;;;5049900;28;20047;-62
2023/05/17 04:31:09;;;;;;;15.90;2.90;;;7.60;99.90;;;;;;5050589;28;20041;-63
2023/05/17 04:33:36;;;;;;;14.60;2.45;;;7.60;99.90;;;;;;5049490;28;20082;-61
2023/05/17 04:36:02;;;;;;;14.10;2.38;;;7.60;99.90;;;;;;5050822;28;20120;-59
2023/05/17 04:38:28;;;;;;;17.30;2.42;;;7.70;99.90;;;;;;5050889;28;20361;-61
2023/05/17 04:41:03;;;;;;;11.27;2.33;;;7.70;99.90;;;;;;5050838;28;20119;-60
2023/05/17 04:43:30;;;;;;;13.15;2.45;;;7.80;99.90;;;;;;5050702;28;20045;-62
2023/05/17 04:45:57;;;;;;;15.10;2.67;;;7.90;99.90;;;;;;5032652;28;20061;-62
2023/05/17 04:48:23;;;;;;;15.57;3.10;;;7.90;99.90;;;;;;5049007;28;20041;-62
2023/05/17 04:50:48;;;;;;;16.52;2.75;;;7.90;99.90;;;;;;5050693;28;20033;-62
2023/05/17 04:53:14;;;;;;;13.43;2.88;;;8.00;99.90;;;;;;5048453;28;20052;-62
2023/05/17 04:55:40;;;;;;;11.10;1.98;;;8.00;99.90;;;;;;5049101;28;20174;-61
2023/05/17 04:58:06;;;;;;;12.18;3.10;;;8.10;99.90;;;;;;5050317;28;20107;-60
2023/05/17 05:00:31;;;;;;;14.70;2.55;;;8.10;99.90;;;;;;5050487;28;21417;-61
2023/05/17 05:02:57;;;;;;;13.50;2.75;;;8.20;99.90;;;;;;5049299;28;20400;-61
2023/05/17 05:05:24;;;;;;;15.07;2.47;;;8.20;99.90;;;;;;5048803;28;20044;-62
2023/05/17 05:07:50;;;;;;;11.85;2.22;;;8.20;99.90;;;;;;5049342;28;20037;-62
2023/05/17 05:10:15;;;;;;;14.52;2.70;;;8.20;99.90;;;;;;5050067;28;20044;-62
2023/05/17 05:12:41;;;;;;;14.35;3.13;;;8.10;99.90;;;;;;5050293;28;20047;-63
2023/05/17 05:15:08;;;;;;;14.23;2.47;;;8.10;99.90;;;;;;5048732;28;20080;-64
2023/05/17 05:17:33;;;;;;;10.85;2.03;;;8.10;99.90;;;;;;5048773;28;20052;-61
2023/05/17 05:19:59;;;;;;;11.27;2.45;;;8.20;99.90;;;;;;5050059;28;20049;-62
2023/05/17 05:22:25;;;;;;;11.43;2.10;;;8.20;99.90;;;;;;5050048;28;20090;-60
2023/05/17 05:24:51;;;;;;;8.98;1.80;;;8.20;99.90;;;;;;5050212;28;20041;-61
2023/05/17 05:27:16;;;;;;;12.82;2.80;;;8.30;99.90;;;;;;5032475;28;20084;-63
2023/05/17 05:29:42;;;;;;;10.65;1.52;;;8.40;99.90;;;;;;5049998;28;20041;-62
2023/05/17 05:32:08;;;;;;;13.82;2.15;;;8.40;99.90;;;;;;5048869;28;20060;-64
2023/05/17 05:34:33;;;;;;;11.88;1.83;;;8.50;99.90;;;;;;5048628;28;20112;-62
2023/05/17 05:36:59;;;;;;;12.63;1.63;;;8.50;99.90;;;;;;5050016;28;20041;-62
2023/05/17 05:39:26;;;;;;;10.93;1.55;;;8.60;99.90;;;;;;5048498;28;20048;-63
2023/05/17 05:41:52;;;;;;;11.02;2.10;;;8.70;99.90;;;;;;5049958;28;20033;-62
2023/05/17 05:44:18;;;;;;;8.25;1.80;;;8.70;99.90;;;;;;5049780;28;20373;-59
2023/05/17 05:46:43;;;;;;;11.55;1.50;;;8.80;99.90;;;;;;5051552;28;20210;-63
2023/05/17 05:49:09;;;;;;;7.82;1.50;;;8.80;99.90;;;;;;5052570;28;20403;-61
2023/05/17 05:51:35;;;;;;;6.90;1.75;;;8.90;99.90;;;;;;5052620;28;20056;-61
2023/05/17 05:54:01;;;;;;;11.30;1.80;;;9.00;99.90;;;;;;5052454;28;20123;-63
2023/05/17 05:56:26;;;;;;;11.95;2.30;;;9.10;99.90;;;;;;5053457;28;20037;-63
2023/05/17 05:58:56;;;;;;;11.00;1.40;;;9.10;99.90;;;;;;5052323;28;20037;-61
2023/05/17 06:01:24;;;;;;;7.40;2.05;;;9.20;99.90;;;;;;5052068;28;20139;-63
2023/05/17 06:03:49;;;;;;;10.90;1.60;;;9.30;99.90;;;;;;5053636;28;20032;-62
2023/05/17 06:06:17;;;;;;;10.93;1.63;;;9.30;99.90;;;;;;5052177;28;20502;-60
2023/05/17 06:08:45;;;;;;;10.00;1.35;;;9.40;99.90;;;;;;5051795;28;20041;-63
2023/05/17 06:11:14;;;;;;;7.38;1.40;;;9.40;99.90;;;;;;5053505;28;20081;-62
2023/05/17 06:13:40;;;;;;;7.47;1.50;;;9.60;99.90;;;;;;5068490;28;20049;-60
2023/05/17 06:16:06;;;;;;;9.70;1.20;;;9.70;99.90;;;;;;5052187;28;20539;-62
2023/05/17 06:18:32;;;;;;;9.48;1.25;;;9.90;99.90;;;;;;5053182;28;20467;-62
2023/05/17 06:20:58;;;;;;;10.18;1.55;;;9.90;99.90;;;;;;5053155;28;20049;-63
2023/05/17 06:23:24;;;;;;;9.13;1.90;;;10.00;99.90;;;;;;5053171;28;20087;-61
2023/05/17 06:25:50;;;;;;;12.38;1.55;;;10.00;99.90;;;;;;5051651;28;20040;-62
2023/05/17 06:28:16;;;;;;;7.18;1.38;;;10.10;99.90;;;;;;5051710;28;20060;-61
2023/05/17 06:30:42;;;;;;;6.70;1.35;;;10.20;99.90;;;;;;5052905;28;20033;-62
2023/05/17 06:33:07;;;;;;;9.77;1.50;;;10.20;99.90;;;;;;5053055;28;20174;-63
2023/05/17 06:35:34;;;;;;;7.88;1.27;;;10.20;99.90;;;;;;5052754;28;20090;-63
2023/05/17 06:38:00;;;;;;;9.13;1.73;;;10.10;99.90;;;;;;5052729;28;20045;-62
2023/05/17 06:40:26;;;;;;;10.00;1.27;;;10.10;99.90;;;;;;5053051;28;20039;-61
2023/05/17 06:42:51;;;;;;;8.48;1.48;;;10.20;99.90;;;;;;5051269;28;20554;-60
2023/05/17 06:45:17;;;;;;;10.43;2.30;;;10.40;99.90;;;;;;5053133;28;20032;-62
2023/05/17 06:47:43;;;;;;;9.63;1.67;;;10.70;99.90;;;;;;5051334;28;20041;-63
2023/05/17 06:50:09;;;;;;;9.25;1.80;;;10.90;99.90;;;;;;5052829;28;20033;-62
2023/05/17 06:52:35;;;;;;;8.90;1.58;;;10.90;99.90;;;;;;5052479;28;20037;-61
2023/05/17 06:55:00;;;;;;;8.77;1.35;;;10.90;99.90;;;;;;5051422;28;20044;-63
2023/05/17 06:57:26;;;;;;;10.48;1.52;;;10.70;99.90;;;;;;5049968;28;20039;-61
2023/05/17 06:59:52;;;;;;;7.88;1.33;;;10.60;99.90;;;;;;5052284;28;20040;-61
2023/05/17 07:02:18;;;;;;;8.95;1.45;;;10.60;99.90;;;;;;5051383;28;20037;-62
2023/05/17 07:04:43;;;;;;;13.60;1.95;;;10.60;99.90;;;;;;5052342;28;20025;-61
2023/05/17 07:07:10;;;;;;;10.68;1.67;;;10.60;99.90;;;;;;5034559;28;20470;-60
2023/05/17 07:09:36;;;;;;;11.27;2.42;;;10.60;99.90;;;;;;5034304;28;20056;-61
2023/05/17 07:12:03;;;;;;;8.52;1.80;;;10.70;99.90;;;;;;5034507;28;20506;-62
2023/05/17 07:14:29;;;;;;;9.13;1.60;;;10.80;99.90;;;;;;5051223;28;20052;-60
2023/05/17 07:16:54;;;;;;;8.95;1.48;;;10.60;99.90;;;;;;5051960;28;20049;-62
2023/05/17 07:19:20;;;;;;;11.02;1.55;;;10.50;99.90;;;;;;5052011;28;20057;-63
2023/05/17 07:21:46;;;;;;;10.70;1.60;;;10.40;99.90;;;;;;5050613;28;20121;-62
2023/05/17 07:24:11;;;;;;;10.90;1.67;;;10.40;99.90;;;;;;5050887;28;20392;-61
2023/05/17 07:26:37;;;;;;;11.43;1.45;;;10.70;99.90;;;;;;5051980;28;20090;-62
2023/05/17 07:29:02;;;;;;;5.85;1.30;;;11.00;99.90;;;;;;5051708;28;20037;-62
2023/05/17 07:31:28;;;;;;;10.48;1.70;;;11.30;99.90;;;;;;5052134;28;20048;-61
2023/05/17 07:33:54;;;;;;;11.43;1.70;;;11.20;99.90;;;;;;5051583;28;20487;-65
2023/05/17 07:36:19;;;;;;;10.15;2.00;;;11.00;99.90;;;;;;5051709;28;20170;-61
2023/05/17 07:38:45;;;;;;;13.52;1.77;;;10.90;99.90;;;;;;5050332;28;20029;-61
2023/05/17 07:41:12;;;;;;;12.18;1.98;;;10.80;99.90;;;;;;5051644;28;20392;-62
2023/05/17 07:43:37;;;;;;;6.07;1.50;;;10.90;99.90;;;;;;5050754;28;20041;-63
2023/05/17 07:46:04;;;;;;;10.15;1.83;;;11.20;99.90;;;;;;5066764;28;20047;-61
2023/05/17 07:48:30;;;;;;;15.70;1.88;;;11.70;99.90;;;;;;5051799;28;20052;-62
2023/05/17 07:50:56;;;;;;;12.73;2.55;;;11.80;99.90;;;;;;5050137;28;20045;-62
2023/05/17 07:53:21;;;;;;;19.98;2.30;;;11.80;99.90;;;;;;5050194;28;20045;-61
2023/05/17 07:55:47;;;;;;;10.23;1.98;;;11.70;99.90;;;;;;5049817;28;20037;-60
2023/05/17 07:58:12;;;;;;;12.40;2.00;;;11.60;99.90;;;;;;5051616;28;20087;-61
2023/05/17 08:00:39;;;;;;;12.30;1.95;;;11.40;99.90;;;;;;5050067;28;20041;-62
2023/05/17 08:03:06;;;;;;;10.07;1.63;;;11.20;99.90;;;;;;5049262;28;20041;-61
2023/05/17 08:05:31;;;;;;;9.95;1.98;;;11.20;99.90;;;;;;5051231;28;20033;-63
2023/05/17 08:08:00;;;;;;;11.18;2.50;;;11.30;99.90;;;;;;5049423;28;20059;-60
2023/05/17 08:10:26;;;;;;;14.80;2.00;;;11.50;99.90;;;;;;5050898;28;20500;-61
2023/05/17 08:12:53;;;;;;;9.85;1.60;;;11.50;99.90;;;;;;5050461;28;20043;-63
2023/05/17 08:15:18;;;;;;;10.75;1.80;;;11.50;99.90;;;;;;5048911;28;20075;-62
2023/05/17 08:17:44;;;;;;;12.07;2.17;;;11.40;99.90;;;;;;5049079;28;20049;-59
2023/05/17 08:20:10;;;;;;;11.48;2.22;;;11.10;99.90;;;;;;5065064;28;20137;-61
2023/05/17 08:22:36;;;;;;;10.23;1.95;;;11.00;99.90;;;;;;5049114;28;20080;-62
2023/05/17 08:25:03;;;;;;;8.73;1.60;;;11.30;99.90;;;;;;5032006;28;20162;-61
2023/05/17 08:27:30;;;;;;;12.20;2.45;;;11.50;99.90;;;;;;5049009;28;20044;-62
2023/05/17 08:29:57;;;;;;;11.57;1.90;;;11.70;99.90;;;;;;5050080;28;20403;-62
2023/05/17 08:32:26;;;;;;;12.75;2.13;;;11.70;99.80;;;;;;5048677;28;20083;-61
2023/05/17 08:34:51;;;;;;;10.60;1.75;;;12.10;99.90;;;;;;5050035;28;20134;-62
2023/05/17 08:37:18;;;;;;;10.80;1.60;;;12.60;99.90;;;;;;5049540;28;20045;-63
2023/05/17 08:39:43;;;;;;;9.02;1.85;;;12.60;97.90;;;;;;5050051;28;20036;-63
2023/05/17 08:42:09;;;;;;;9.48;1.58;;;12.40;97.00;;;;;;5050624;28;20043;-63
2023/05/17 08:44:35;;;;;;;10.63;2.38;;;12.30;96.80;;;;;;5050672;28;20078;-64
2023/05/17 08:47:03;;;;;;;8.55;1.52;;;12.10;96.40;;;;;;5049205;28;20052;-61
2023/05/17 08:49:32;;;;;;;11.20;1.70;;;12.10;98.00;;;;;;5049146;28;20044;-62
2023/05/17 08:52:00;;;;;;;11.50;1.75;;;12.10;98.40;;;;;;5049261;28;20037;-63
2023/05/17 08:54:26;;;;;;;10.27;2.15;;;12.10;98.50;;;;;;5049084;28;20049;-62
2023/05/17 08:56:59;;;;;;;9.27;2.13;;;12.10;97.90;;;;;;5050530;28;20171;-63
2023/05/17 08:59:26;;;;;;;10.40;2.10;;;12.10;97.60;;;;;;5048906;28;20071;-62
2023/05/17 09:01:53;;;;;;;10.25;1.85;;;12.10;98.40;;;;;;5049440;28;20484;-61
2023/05/17 09:04:19;;;;;;;12.88;2.05;;;12.60;99.00;;;;;;5050280;28;20491;-62
2023/05/17 09:06:44;;;;;;;9.32;1.85;;;13.10;99.00;;;;;;5050414;28;20045;-65
2023/05/17 09:09:10;;;;;;;9.82;2.13;;;13.50;97.90;;;;;;5048876;28;20193;-62
2023/05/17 09:11:36;;;;;;;6.18;1.80;;;13.80;98.60;;;;;;5050252;28;20446;-63
2023/05/17 09:14:04;;;;;;;10.75;1.92;;;13.60;95.70;;;;;;5049037;28;20052;-62
2023/05/17 09:16:32;;;;;;;10.18;1.90;;;13.40;95.80;;;;;;5048611;28;20040;-62
2023/05/17 09:18:58;;;;;;;10.15;1.90;;;13.40;96.60;;;;;;5048933;28;20057;-62
2023/05/17 09:21:24;;;;;;;10.07;1.85;;;13.50;96.80;;;;;;5051710;28;20045;-62
2023/05/17 09:23:51;;;;;;;8.45;1.90;;;13.60;94.70;;;;;;5054285;28;20384;-64
2023/05/17 09:26:17;;;;;;;10.27;1.73;;;13.60;95.90;;;;;;5054324;28;20069;-63
2023/05/17 09:28:43;;;;;;;9.48;1.50;;;13.50;96.10;;;;;;5054313;28;20041;-61
2023/05/17 09:31:12;;;;;;;10.52;1.88;;;13.30;95.90;;;;;;5054307;28;20481;-63
2023/05/17 09:33:48;;;;;;;8.57;1.45;;;13.40;96.20;;;;;;5069343;28;20095;-61
2023/05/17 09:36:19;;;;;;;10.25;2.20;;;13.20;95.20;;;;;;5054299;28;20119;-61
2023/05/17 09:38:58;;;;;;;9.50;2.10;;;13.20;96.20;;;;;;5052777;28;20045;-63
2023/05/17 09:41:29;;;;;;;10.77;1.52;;;13.10;95.80;;;;;;5053805;28;20091;-65
2023/05/17 09:44:02;;;;;;;9.40;1.95;;;13.30;96.20;;;;;;5053938;28;20040;-63
2023/05/17 09:46:35;;;;;;;9.68;1.88;;;13.30;95.50;;;;;;5052191;28;20114;-61
2023/05/17 09:49:04;;;;;;;10.13;1.73;;;13.30;95.50;;;;;;5054099;28;20037;-63
2023/05/17 09:51:38;;;;;;;11.55;1.92;;;13.10;94.10;;;;;;5053590;28;20043;-60
2023/05/17 09:54:05;;;;;;;8.23;1.55;;;13.30;96.40;;;;;;5052888;28;20665;-61
2023/05/17 09:56:32;;;;;;;10.15;1.92;;;13.30;96.60;;;;;;5052100;28;20126;-61
2023/05/17 09:59:00;;;;;;;11.55;1.83;;;13.40;95.70;;;;;;5053530;28;20551;-62
2023/05/17 10:01:27;;;;;;;11.23;2.00;;;13.40;95.60;;;;;;5053656;28;20037;-62
2023/05/17 10:03:54;;;;;;;9.30;1.80;;;13.90;96.40;;;;;;5053711;28;20029;-63
2023/05/17 10:06:24;;;;;;;11.68;2.30;;;14.00;95.10;;;;;;5053655;28;20052;-62
2023/05/17 10:08:53;;;;;;;11.75;2.20;;;14.60;96.10;;;;;;5052314;28;20041;-62
2023/05/17 10:11:26;;;;;;;10.02;2.05;;;14.90;95.70;;;;;;5053144;28;20209;-62
2023/05/17 10:14:04;;;;;;;8.68;1.70;;;15.20;95.20;;;;;;5052000;28;20044;-59
2023/05/17 10:16:33;;;;;;;11.60;1.65;;;15.70;95.60;;;;;;5053189;28;20041;-62
2023/05/17 10:19:00;;;;;;;11.68;1.92;;;15.80;95.30;;;;;;5053273;28;20381;-62
2023/05/17 10:21:27;;;;;;;12.48;2.90;;;15.60;94.00;;;;;;5053187;28;20052;-61
2023/05/17 10:23:54;;;;;;;10.95;2.08;;;15.90;95.30;;;;;;5053121;28;20492;-61
2023/05/17 10:26:20;;;;;;;11.75;2.00;;;16.10;92.10;;;;;;5052189;28;20465;-62
2023/05/17 10:28:50;;;;;;;11.98;2.20;;;15.90;91.70;;;;;;5051586;28;20045;-62
2023/05/17 10:31:16;;;;;;;8.20;1.90;;;15.60;92.10;;;;;;5052978;28;20044;-60
2023/05/17 10:33:45;;;;;;;9.95;1.77;;;15.30;92.90;;;;;;5051494;28;20041;-62
2023/05/17 10:36:16;;;;;;;11.00;2.33;;;14.90;92.40;;;;;;5053009;28;20468;-61
2023/05/17 10:38:42;;;;;;;12.80;2.42;;;14.50;93.50;;;;;;5053006;28;20499;-61
2023/05/17 10:41:10;;;;;;;12.20;2.47;;;14.20;93.30;;;;;;5052847;28;20538;-63
2023/05/17 10:43:38;;;;;;;6.50;1.48;;;13.80;93.90;;;;;;5052723;28;20041;-62
2023/05/17 10:46:21;;;;;;;9.70;1.50;;;13.40;94.50;;;;;;5051785;28;20387;-64
2023/05/17 10:48:51;;;;;;;6.80;1.85;;;13.40;94.80;;;;;;5051306;28;21671;-62
2023/05/17 10:51:23;;;;;;;9.35;2.08;;;13.40;95.10;;;;;;5068198;28;20361;-64
2023/05/17 10:54:11;;;;;;;8.02;1.67;;;13.30;94.90;;;;;;5051596;28;20396;-60
2023/05/17 10:56:48;;;;;;;10.25;1.88;;;13.30;94.80;;;;;;5052511;28;20037;-63
2023/05/17 10:59:28;;;;;;;13.25;1.92;;;13.90;94.90;;;;;;5051397;28;20391;-63
2023/05/17 11:01:58;;;;;;;11.15;1.95;;;14.60;94.80;;;;;;5052406;28;20434;-63
2023/05/17 11:04:30;;;;;;;10.50;1.85;;;15.10;94.30;;;;;;5051598;28;20037;-64
2023/05/17 11:07:16;;;;;;;11.65;2.15;;;15.50;92.40;;;;;;5052282;28;20499;-61
2023/05/17 11:09:53;;;;;;;8.45;1.85;;;15.40;91.30;;;;;;5043810;28;20044;-63
2023/05/17 11:12:36;;;;;;;7.10;1.45;;;15.20;90.90;;;;;;5050941;28;20044;-64
2023/05/17 11:15:07;;;;;;;8.75;1.85;;;15.10;91.80;;;;;;5052041;28;20044;-64
2023/05/17 11:17:55;;;;;;;9.55;2.20;;;15.40;93.30;;;;;;5052269;28;20041;-61
2023/05/17 11:20:24;;;;;;;8.82;1.70;;;15.40;92.40;;;;;;5050827;28;20057;-62
2023/05/17 11:23:03;;;;;;;9.13;1.90;;;15.30;92.60;;;;;;5050911;28;20048;-63
2023/05/17 11:25:34;;;;;;;7.18;1.38;;;15.00;90.20;;;;;;5051095;28;20443;-62
2023/05/17 11:28:25;;;;;;;9.50;1.88;;;14.60;91.70;;;;;;5050707;28;20037;-61
2023/05/17 11:30:59;;;;;;;9.70;1.55;;;14.30;92.10;;;;;;5050358;28;20044;-61
2023/05/17 11:33:38;;;;;;;8.98;1.85;;;14.90;93.90;;;;;;5051095;28;20444;-64
2023/05/17 11:36:12;;;;;;;11.25;1.80;;;15.20;93.20;;;;;;5050627;28;20515;-62
2023/05/17 11:38:37;;;;;;;8.75;1.67;;;15.30;92.20;;;;;;5033874;28;20132;-60
2023/05/17 11:41:20;;;;;;;4.95;1.27;;;15.50;92.90;;;;;;5050040;28;20116;-61
2023/05/17 11:43:47;;;;;;;8.10;1.40;;;15.60;90.20;;;;;;5049633;28;20049;-61
2023/05/17 11:46:22;;;;;;;8.43;2.00;;;15.60;91.60;;;;;;5051638;28;20041;-63
2023/05/17 11:48:52;;;;;;;7.13;1.40;;;15.80;91.30;;;;;;5051493;28;20095;-62
2023/05/17 11:51:18;;;;;;;8.07;1.63;;;15.60;90.70;;;;;;5051690;28;20033;-62
2023/05/17 11:53:46;;;;;;;9.88;1.58;;;15.20;90.40;;;;;;5050075;28;20033;-60
2023/05/17 11:56:12;;;;;;;7.30;1.50;;;15.10;90.00;;;;;;5051150;28;20044;-64
2023/05/17 11:58:37;;;;;;;6.28;1.55;;;15.20;88.60;;;;;;5050298;28;20044;-61
2023/05/17 12:01:04;;;;;;;6.35;1.20;;;15.20;87.90;;;;;;5066534;28;20064;-61
2023/05/17 12:03:31;;;;;;;10.38;1.80;;;15.20;87.60;;;;;;5051412;28;20040;-63
2023/05/17 12:06:08;;;;;;;9.00;1.65;;;15.50;90.40;;;;;;5050967;28;20476;-63
2023/05/17 12:08:36;;;;;;;6.68;1.52;;;15.50;90.00;;;;;;5050065;28;20045;-63
2023/05/17 12:11:03;;;;;;;8.23;1.38;;;15.50;89.50;;;;;;5049901;28;20041;-62
2023/05/17 12:13:31;;;;;;;9.60;1.60;;;15.50;90.40;;;;;;5049997;28;20372;-63
2023/05/17 12:16:00;;;;;;;7.30;1.75;;;15.50;89.50;;;;;;5051037;28;20033;-62
2023/05/17 12:18:40;;;;;;;5.97;1.45;;;15.30;85.00;;;;;;5051129;28;20124;-62
2023/05/17 12:21:07;;;;;;;6.07;1.52;;;15.40;89.70;;;;;;5050769;28;20037;-64
2023/05/17 12:23:42;;;;;;;6.15;1.38;;;14.90;82.40;;;;;;5049969;28;20484;-63
2023/05/17 12:26:11;;;;;;;7.80;1.75;;;15.10;86.40;;;;;;5049584;28;20471;-61
2023/05/17 12:28:46;;;;;;;9.88;1.75;;;15.10;86.00;;;;;;5050897;28;20484;-62
2023/05/17 12:31:15;;;;;;;10.55;2.25;;;15.10;86.50;;;;;;5049367;28;20102;-63
2023/05/17 12:33:42;;;;;;;9.95;1.50;;;15.30;88.20;;;;;;5049651;28;20049;-61
2023/05/17 12:36:10;;;;;;;8.75;1.80;;;15.30;89.20;;;;;;5049261;28;20041;-63
2023/05/17 12:38:39;;;;;;;8.35;1.73;;;14.90;86.90;;;;;;5049442;28;20079;-62
2023/05/17 12:41:08;;;;;;;7.53;1.38;;;14.70;88.00;;;;;;5049092;28;20040;-62
2023/05/17 12:43:36;;;;;;;9.18;1.73;;;14.60;89.90;;;;;;5049180;28;20090;-62
2023/05/17 12:46:05;;;;;;;5.72;1.40;;;14.60;90.10;;;;;;5050415;28;20121;-64
2023/05/17 12:48:33;;;;;;;7.60;1.95;;;14.60;90.50;;;;;;5049169;28;20072;-62